sensor_id;sensor_type;location;lat;lon;timestamp;P1;durP1;ratioP1;P2;durP2;ratioP2
5157;SDS011;2598;52.364;9.772;2023-12-14T00:00:28;6.10;;;2.33;;
5157;SDS011;2598;52.364;9.772;2023-12-14T00:02:55;5.60;;;2.53;;
5157;SDS011;2598;52.364;9.772;2023-12-14T00:05:21;7.40;;;2.80;;
5157;SDS011;2598;52.364;9.772;2023-12-14T00:07:47;9.67;;;3.33;;
5157;SDS011;2598;52.364;9.772;2023-12-14T00:10:13;6.07;;;2.80;;
5157;SDS011;2598;52.364;9.772;2023-12-14T00:12:39;7.13;;;3.30;;
5157;SDS011;2598;52.364;9.772;2023-12-14T00:15:05;8.40;;;3.20;;
5157;SDS011;2598;52.364;9.772;2023-12-14T00:17:32;5.80;;;3.37;;
5157;SDS011;2598;52.364;9.772;2023-12-14T00:19:58;8.13;;;3.80;;
5157;SDS011;2598;52.364;9.772;2023-12-14T00:22:24;6.93;;;3.30;;
5157;SDS011;2598;52.364;9.772;2023-12-14T00:24:49;7.10;;;3.57;;
5157;SDS011;2598;52.364;9.772;2023-12-14T00:27:16;6.87;;;4.13;;
5157;SDS011;2598;52.364;9.772;2023-12-14T00:29:42;9.70;;;4.30;;
5157;SDS011;2598;52.364;9.772;2023-12-14T00:32:08;6.80;;;3.93;;
5157;SDS011;2598;52.364;9.772;2023-12-14T00:34:34;8.23;;;3.83;;
5157;SDS011;2598;52.364;9.772;2023-12-14T00:37:00;8.77;;;4.47;;
5157;SDS011;2598;52.364;9.772;2023-12-14T00:39:26;8.63;;;4.10;;
5157;SDS011;2598;52.364;9.772;2023-12-14T00:41:52;9.93;;;5.37;;
5157;SDS011;2598;52.364;9.772;2023-12-14T00:44:18;7.80;;;3.90;;
5157;SDS011;2598;52.364;9.772;2023-12-14T00:46:44;8.70;;;4.17;;
5157;SDS011;2598;52.364;9.772;2023-12-14T00:49:10;7.90;;;3.93;;
5157;SDS011;2598;52.364;9.772;2023-12-14T00:51:36;6.80;;;4.03;;
5157;SDS011;2598;52.364;9.772;2023-12-14T00:54:02;7.63;;;4.13;;
5157;SDS011;2598;52.364;9.772;2023-12-14T00:56:28;8.47;;;4.13;;
5157;SDS011;2598;52.364;9.772;2023-12-14T00:58:54;6.40;;;3.30;;
5157;SDS011;2598;52.364;9.772;2023-12-14T01:01:20;9.80;;;4.77;;
5157;SDS011;2598;52.364;9.772;2023-12-14T01:03:46;6.83;;;3.50;;
5157;SDS011;2598;52.364;9.772;2023-12-14T01:06:12;8.10;;;3.90;;
5157;SDS011;2598;52.364;9.772;2023-12-14T01:08:38;8.47;;;3.33;;
5157;SDS011;2598;52.364;9.772;2023-12-14T01:11:04;5.40;;;3.10;;
5157;SDS011;2598;52.364;9.772;2023-12-14T01:13:30;6.20;;;3.57;;
5157;SDS011;2598;52.364;9.772;2023-12-14T01:15:56;7.70;;;3.70;;
5157;SDS011;2598;52.364;9.772;2023-12-14T01:18:22;7.33;;;3.53;;
5157;SDS011;2598;52.364;9.772;2023-12-14T01:20:49;8.43;;;3.83;;
5157;SDS011;2598;52.364;9.772;2023-12-14T01:23:15;9.50;;;2.83;;
5157;SDS011;2598;52.364;9.772;2023-12-14T01:25:41;6.53;;;3.60;;
5157;SDS011;2598;52.364;9.772;2023-12-14T01:28:07;6.60;;;3.20;;
5157;SDS011;2598;52.364;9.772;2023-12-14T01:30:33;6.00;;;3.40;;
5157;SDS011;2598;52.364;9.772;2023-12-14T01:32:59;7.80;;;3.40;;
5157;SDS011;2598;52.364;9.772;2023-12-14T01:35:25;7.10;;;3.57;;
5157;SDS011;2598;52.364;9.772;2023-12-14T01:37:53;5.87;;;2.97;;
5157;SDS011;2598;52.364;9.772;2023-12-14T01:40:19;6.33;;;3.70;;
5157;SDS011;2598;52.364;9.772;2023-12-14T01:42:45;6.63;;;3.40;;
5157;SDS011;2598;52.364;9.772;2023-12-14T01:45:11;7.20;;;3.23;;
5157;SDS011;2598;52.364;9.772;2023-12-14T01:47:40;6.43;;;3.40;;
5157;SDS011;2598;52.364;9.772;2023-12-14T01:50:06;5.90;;;3.10;;
5157;SDS011;2598;52.364;9.772;2023-12-14T01:52:32;6.50;;;3.20;;
5157;SDS011;2598;52.364;9.772;2023-12-14T01:54:58;8.27;;;3.50;;
5157;SDS011;2598;52.364;9.772;2023-12-14T01:57:24;7.53;;;3.43;;
5157;SDS011;2598;52.364;9.772;2023-12-14T01:59:50;6.67;;;3.80;;
5157;SDS011;2598;52.364;9.772;2023-12-14T02:02:16;6.47;;;3.50;;
5157;SDS011;2598;52.364;9.772;2023-12-14T02:04:42;6.90;;;3.53;;
5157;SDS011;2598;52.364;9.772;2023-12-14T02:07:09;8.43;;;3.50;;
5157;SDS011;2598;52.364;9.772;2023-12-14T02:09:35;7.50;;;4.20;;
5157;SDS011;2598;52.364;9.772;2023-12-14T02:12:01;7.20;;;3.40;;
5157;SDS011;2598;52.364;9.772;2023-12-14T02:14:26;7.40;;;3.90;;
5157;SDS011;2598;52.364;9.772;2023-12-14T02:16:52;8.17;;;3.90;;
5157;SDS011;2598;52.364;9.772;2023-12-14T02:19:18;7.27;;;3.60;;
5157;SDS011;2598;52.364;9.772;2023-12-14T02:21:44;8.30;;;3.97;;
5157;SDS011;2598;52.364;9.772;2023-12-14T02:24:10;9.50;;;3.93;;
5157;SDS011;2598;52.364;9.772;2023-12-14T02:26:36;8.30;;;3.87;;
5157;SDS011;2598;52.364;9.772;2023-12-14T02:29:02;8.00;;;3.80;;
5157;SDS011;2598;52.364;9.772;2023-12-14T02:31:28;8.27;;;3.30;;
5157;SDS011;2598;52.364;9.772;2023-12-14T02:33:54;6.17;;;3.70;;
5157;SDS011;2598;52.364;9.772;2023-12-14T02:36:20;9.47;;;4.37;;
5157;SDS011;2598;52.364;9.772;2023-12-14T02:38:46;6.60;;;3.80;;
5157;SDS011;2598;52.364;9.772;2023-12-14T02:41:12;8.47;;;4.40;;
5157;SDS011;2598;52.364;9.772;2023-12-14T02:43:38;8.17;;;4.77;;
5157;SDS011;2598;52.364;9.772;2023-12-14T02:46:05;9.53;;;5.03;;
5157;SDS011;2598;52.364;9.772;2023-12-14T02:48:31;9.90;;;4.93;;
5157;SDS011;2598;52.364;9.772;2023-12-14T02:50:57;12.77;;;5.60;;
5157;SDS011;2598;52.364;9.772;2023-12-14T02:53:25;8.80;;;5.00;;
5157;SDS011;2598;52.364;9.772;2023-12-14T02:55:51;10.17;;;5.33;;
5157;SDS011;2598;52.364;9.772;2023-12-14T02:58:18;8.90;;;4.27;;
5157;SDS011;2598;52.364;9.772;2023-12-14T03:00:44;9.40;;;4.70;;
5157;SDS011;2598;52.364;9.772;2023-12-14T03:03:10;7.87;;;4.40;;
5157;SDS011;2598;52.364;9.772;2023-12-14T03:05:36;11.67;;;5.33;;
5157;SDS011;2598;52.364;9.772;2023-12-14T03:08:02;9.40;;;4.80;;
5157;SDS011;2598;52.364;9.772;2023-12-14T03:10:28;9.33;;;5.23;;
5157;SDS011;2598;52.364;9.772;2023-12-14T03:12:54;10.47;;;5.17;;
5157;SDS011;2598;52.364;9.772;2023-12-14T03:15:20;10.43;;;5.13;;
5157;SDS011;2598;52.364;9.772;2023-12-14T03:17:47;7.00;;;4.20;;
5157;SDS011;2598;52.364;9.772;2023-12-14T03:20:13;7.70;;;3.67;;
5157;SDS011;2598;52.364;9.772;2023-12-14T03:22:39;8.10;;;4.13;;
5157;SDS011;2598;52.364;9.772;2023-12-14T03:25:05;8.70;;;4.20;;
5157;SDS011;2598;52.364;9.772;2023-12-14T03:27:31;6.83;;;3.60;;
5157;SDS011;2598;52.364;9.772;2023-12-14T03:29:57;6.70;;;3.27;;
5157;SDS011;2598;52.364;9.772;2023-12-14T03:32:23;6.40;;;3.80;;
5157;SDS011;2598;52.364;9.772;2023-12-14T03:34:49;7.23;;;4.07;;
5157;SDS011;2598;52.364;9.772;2023-12-14T03:37:15;6.43;;;3.57;;
5157;SDS011;2598;52.364;9.772;2023-12-14T03:39:41;10.40;;;4.70;;
5157;SDS011;2598;52.364;9.772;2023-12-14T03:42:07;6.23;;;3.43;;
5157;SDS011;2598;52.364;9.772;2023-12-14T03:44:33;7.97;;;4.40;;
5157;SDS011;2598;52.364;9.772;2023-12-14T03:46:59;7.37;;;4.33;;
5157;SDS011;2598;52.364;9.772;2023-12-14T03:49:25;8.43;;;4.33;;
5157;SDS011;2598;52.364;9.772;2023-12-14T03:51:51;8.10;;;4.20;;
5157;SDS011;2598;52.364;9.772;2023-12-14T03:54:17;7.20;;;4.07;;
5157;SDS011;2598;52.364;9.772;2023-12-14T03:56:43;8.23;;;4.03;;
5157;SDS011;2598;52.364;9.772;2023-12-14T03:59:09;9.30;;;4.50;;
5157;SDS011;2598;52.364;9.772;2023-12-14T04:01:35;9.27;;;4.50;;
5157;SDS011;2598;52.364;9.772;2023-12-14T04:04:04;6.23;;;3.57;;
5157;SDS011;2598;52.364;9.772;2023-12-14T04:06:30;7.60;;;3.67;;
5157;SDS011;2598;52.364;9.772;2023-12-14T04:08:56;8.43;;;4.47;;
5157;SDS011;2598;52.364;9.772;2023-12-14T04:11:22;7.43;;;4.03;;
5157;SDS011;2598;52.364;9.772;2023-12-14T04:13:49;9.43;;;4.30;;
5157;SDS011;2598;52.364;9.772;2023-12-14T04:16:22;12.80;;;4.60;;
5157;SDS011;2598;52.364;9.772;2023-12-14T04:18:48;7.77;;;4.13;;
5157;SDS011;2598;52.364;9.772;2023-12-14T04:21:14;6.93;;;3.93;;
5157;SDS011;2598;52.364;9.772;2023-12-14T04:23:40;8.97;;;4.53;;
5157;SDS011;2598;52.364;9.772;2023-12-14T04:26:06;9.13;;;4.53;;
5157;SDS011;2598;52.364;9.772;2023-12-14T04:28:34;8.97;;;4.33;;
5157;SDS011;2598;52.364;9.772;2023-12-14T04:31:00;7.90;;;4.07;;
5157;SDS011;2598;52.364;9.772;2023-12-14T04:33:26;7.27;;;3.70;;
5157;SDS011;2598;52.364;9.772;2023-12-14T04:35:52;9.13;;;3.80;;
5157;SDS011;2598;52.364;9.772;2023-12-14T04:38:18;6.53;;;3.97;;
5157;SDS011;2598;52.364;9.772;2023-12-14T04:40:44;9.00;;;3.80;;
5157;SDS011;2598;52.364;9.772;2023-12-14T04:43:10;6.30;;;3.23;;
5157;SDS011;2598;52.364;9.772;2023-12-14T04:45:37;6.47;;;3.27;;
5157;SDS011;2598;52.364;9.772;2023-12-14T04:48:03;6.53;;;3.27;;
5157;SDS011;2598;52.364;9.772;2023-12-14T04:50:29;6.00;;;3.00;;
5157;SDS011;2598;52.364;9.772;2023-12-14T04:52:55;7.50;;;2.87;;
5157;SDS011;2598;52.364;9.772;2023-12-14T04:55:21;7.80;;;3.30;;
5157;SDS011;2598;52.364;9.772;2023-12-14T04:57:47;6.60;;;3.53;;
5157;SDS011;2598;52.364;9.772;2023-12-14T05:00:14;6.33;;;3.23;;
5157;SDS011;2598;52.364;9.772;2023-12-14T05:02:40;6.67;;;2.90;;
5157;SDS011;2598;52.364;9.772;2023-12-14T05:05:06;5.50;;;2.70;;
5157;SDS011;2598;52.364;9.772;2023-12-14T05:07:32;6.30;;;3.27;;
5157;SDS011;2598;52.364;9.772;2023-12-14T05:09:58;7.70;;;3.20;;
5157;SDS011;2598;52.364;9.772;2023-12-14T05:12:24;6.13;;;3.40;;
5157;SDS011;2598;52.364;9.772;2023-12-14T05:14:52;6.30;;;3.20;;
5157;SDS011;2598;52.364;9.772;2023-12-14T05:17:18;7.57;;;3.57;;
5157;SDS011;2598;52.364;9.772;2023-12-14T05:19:44;5.70;;;3.10;;
5157;SDS011;2598;52.364;9.772;2023-12-14T05:22:11;6.63;;;3.67;;
5157;SDS011;2598;52.364;9.772;2023-12-14T05:24:37;6.83;;;3.13;;
5157;SDS011;2598;52.364;9.772;2023-12-14T05:27:03;6.73;;;3.23;;
5157;SDS011;2598;52.364;9.772;2023-12-14T05:29:29;8.20;;;3.50;;
5157;SDS011;2598;52.364;9.772;2023-12-14T05:31:56;6.30;;;3.43;;
5157;SDS011;2598;52.364;9.772;2023-12-14T05:34:22;6.93;;;3.80;;
5157;SDS011;2598;52.364;9.772;2023-12-14T05:36:48;6.33;;;3.10;;
5157;SDS011;2598;52.364;9.772;2023-12-14T05:39:14;8.77;;;3.90;;
5157;SDS011;2598;52.364;9.772;2023-12-14T05:41:40;6.50;;;3.70;;
5157;SDS011;2598;52.364;9.772;2023-12-14T05:44:06;9.03;;;4.57;;
5157;SDS011;2598;52.364;9.772;2023-12-14T05:46:32;7.03;;;3.23;;
5157;SDS011;2598;52.364;9.772;2023-12-14T05:48:58;7.80;;;3.90;;
5157;SDS011;2598;52.364;9.772;2023-12-14T05:53:53;7.03;;;3.50;;
5157;SDS011;2598;52.364;9.772;2023-12-14T05:56:19;5.90;;;3.00;;
5157;SDS011;2598;52.364;9.772;2023-12-14T05:58:45;6.30;;;3.37;;
5157;SDS011;2598;52.364;9.772;2023-12-14T06:01:11;7.77;;;3.80;;
5157;SDS011;2598;52.364;9.772;2023-12-14T06:03:38;6.67;;;3.40;;
5157;SDS011;2598;52.364;9.772;2023-12-14T06:06:04;6.60;;;3.17;;
5157;SDS011;2598;52.364;9.772;2023-12-14T06:08:30;5.20;;;2.77;;
5157;SDS011;2598;52.364;9.772;2023-12-14T06:10:56;7.53;;;3.10;;
5157;SDS011;2598;52.364;9.772;2023-12-14T06:13:22;5.27;;;2.60;;
5157;SDS011;2598;52.364;9.772;2023-12-14T06:15:48;7.00;;;3.23;;
5157;SDS011;2598;52.364;9.772;2023-12-14T06:18:14;6.30;;;2.80;;
5157;SDS011;2598;52.364;9.772;2023-12-14T06:20:40;5.47;;;2.80;;
5157;SDS011;2598;52.364;9.772;2023-12-14T06:23:06;5.77;;;3.00;;
5157;SDS011;2598;52.364;9.772;2023-12-14T06:25:32;5.50;;;2.70;;
5157;SDS011;2598;52.364;9.772;2023-12-14T06:27:58;6.00;;;2.73;;
5157;SDS011;2598;52.364;9.772;2023-12-14T06:30:24;6.90;;;3.20;;
5157;SDS011;2598;52.364;9.772;2023-12-14T06:32:50;10.03;;;3.43;;
5157;SDS011;2598;52.364;9.772;2023-12-14T06:35:16;5.40;;;2.90;;
5157;SDS011;2598;52.364;9.772;2023-12-14T06:37:41;6.80;;;3.03;;
5157;SDS011;2598;52.364;9.772;2023-12-14T06:40:08;7.07;;;3.40;;
5157;SDS011;2598;52.364;9.772;2023-12-14T06:42:34;7.00;;;3.40;;
5157;SDS011;2598;52.364;9.772;2023-12-14T06:45:01;6.63;;;3.23;;
5157;SDS011;2598;52.364;9.772;2023-12-14T06:47:28;7.73;;;3.20;;
5157;SDS011;2598;52.364;9.772;2023-12-14T06:49:54;5.10;;;2.60;;
5157;SDS011;2598;52.364;9.772;2023-12-14T06:52:22;7.07;;;3.57;;
5157;SDS011;2598;52.364;9.772;2023-12-14T06:54:48;7.90;;;3.27;;
5157;SDS011;2598;52.364;9.772;2023-12-14T06:57:14;7.47;;;3.00;;
5157;SDS011;2598;52.364;9.772;2023-12-14T06:59:40;6.93;;;3.17;;
5157;SDS011;2598;52.364;9.772;2023-12-14T07:02:06;5.30;;;2.93;;
5157;SDS011;2598;52.364;9.772;2023-12-14T07:04:32;5.83;;;3.20;;
5157;SDS011;2598;52.364;9.772;2023-12-14T07:06:58;5.60;;;2.80;;
5157;SDS011;2598;52.364;9.772;2023-12-14T07:09:24;5.53;;;2.60;;
5157;SDS011;2598;52.364;9.772;2023-12-14T07:11:51;6.90;;;2.83;;
5157;SDS011;2598;52.364;9.772;2023-12-14T07:14:17;5.27;;;2.57;;
5157;SDS011;2598;52.364;9.772;2023-12-14T07:16:44;6.23;;;3.43;;
5157;SDS011;2598;52.364;9.772;2023-12-14T07:19:10;7.23;;;2.90;;
5157;SDS011;2598;52.364;9.772;2023-12-14T07:21:36;6.10;;;3.30;;
5157;SDS011;2598;52.364;9.772;2023-12-14T07:24:02;5.30;;;2.90;;
5157;SDS011;2598;52.364;9.772;2023-12-14T07:26:28;6.80;;;3.57;;
5157;SDS011;2598;52.364;9.772;2023-12-14T07:28:54;6.37;;;3.10;;
5157;SDS011;2598;52.364;9.772;2023-12-14T07:31:20;6.33;;;3.10;;
5157;SDS011;2598;52.364;9.772;2023-12-14T07:33:46;7.60;;;3.37;;
5157;SDS011;2598;52.364;9.772;2023-12-14T07:36:12;7.30;;;3.30;;
5157;SDS011;2598;52.364;9.772;2023-12-14T07:38:38;7.13;;;3.23;;
5157;SDS011;2598;52.364;9.772;2023-12-14T07:41:04;7.30;;;3.90;;
5157;SDS011;2598;52.364;9.772;2023-12-14T07:43:30;7.57;;;3.20;;
5157;SDS011;2598;52.364;9.772;2023-12-14T07:45:57;7.87;;;3.53;;
5157;SDS011;2598;52.364;9.772;2023-12-14T07:48:23;6.20;;;3.03;;
5157;SDS011;2598;52.364;9.772;2023-12-14T07:50:49;5.63;;;2.80;;
5157;SDS011;2598;52.364;9.772;2023-12-14T07:53:16;7.03;;;3.37;;
5157;SDS011;2598;52.364;9.772;2023-12-14T07:55:42;6.20;;;3.30;;
5157;SDS011;2598;52.364;9.772;2023-12-14T07:58:08;5.97;;;3.20;;
5157;SDS011;2598;52.364;9.772;2023-12-14T08:00:34;6.23;;;2.70;;
5157;SDS011;2598;52.364;9.772;2023-12-14T08:03:00;5.87;;;2.60;;
5157;SDS011;2598;52.364;9.772;2023-12-14T08:05:26;4.87;;;2.50;;
5157;SDS011;2598;52.364;9.772;2023-12-14T08:07:52;6.90;;;3.20;;
5157;SDS011;2598;52.364;9.772;2023-12-14T08:10:18;5.20;;;2.63;;
5157;SDS011;2598;52.364;9.772;2023-12-14T08:12:44;5.60;;;2.90;;
5157;SDS011;2598;52.364;9.772;2023-12-14T08:15:12;5.63;;;2.40;;
5157;SDS011;2598;52.364;9.772;2023-12-14T08:17:38;8.17;;;3.27;;
5157;SDS011;2598;52.364;9.772;2023-12-14T08:20:04;5.67;;;2.70;;
5157;SDS011;2598;52.364;9.772;2023-12-14T08:22:33;6.90;;;2.40;;
5157;SDS011;2598;52.364;9.772;2023-12-14T08:24:59;5.53;;;2.30;;
5157;SDS011;2598;52.364;9.772;2023-12-14T08:27:25;7.00;;;3.10;;
5157;SDS011;2598;52.364;9.772;2023-12-14T08:29:51;5.80;;;2.90;;
5157;SDS011;2598;52.364;9.772;2023-12-14T08:32:17;6.77;;;2.73;;
5157;SDS011;2598;52.364;9.772;2023-12-14T08:34:43;5.87;;;2.90;;
5157;SDS011;2598;52.364;9.772;2023-12-14T08:37:10;5.37;;;2.37;;
5157;SDS011;2598;52.364;9.772;2023-12-14T08:39:35;6.33;;;2.87;;
5157;SDS011;2598;52.364;9.772;2023-12-14T08:42:01;4.80;;;2.33;;
5157;SDS011;2598;52.364;9.772;2023-12-14T08:44:27;8.33;;;2.73;;
5157;SDS011;2598;52.364;9.772;2023-12-14T08:46:53;4.60;;;2.63;;
5157;SDS011;2598;52.364;9.772;2023-12-14T08:49:19;5.07;;;2.67;;
5157;SDS011;2598;52.364;9.772;2023-12-14T08:51:46;7.50;;;2.47;;
5157;SDS011;2598;52.364;9.772;2023-12-14T08:54:12;6.00;;;2.57;;
5157;SDS011;2598;52.364;9.772;2023-12-14T08:56:38;5.77;;;2.57;;
5157;SDS011;2598;52.364;9.772;2023-12-14T08:59:04;4.70;;;2.40;;
5157;SDS011;2598;52.364;9.772;2023-12-14T09:01:30;4.90;;;2.57;;
5157;SDS011;2598;52.364;9.772;2023-12-14T09:03:56;4.93;;;2.10;;
5157;SDS011;2598;52.364;9.772;2023-12-14T09:06:22;6.73;;;2.57;;
5157;SDS011;2598;52.364;9.772;2023-12-14T09:08:48;5.90;;;2.83;;
5157;SDS011;2598;52.364;9.772;2023-12-14T09:11:14;5.63;;;2.60;;
5157;SDS011;2598;52.364;9.772;2023-12-14T09:13:40;8.13;;;3.00;;
5157;SDS011;2598;52.364;9.772;2023-12-14T09:16:07;6.80;;;2.60;;
5157;SDS011;2598;52.364;9.772;2023-12-14T09:18:33;5.93;;;2.73;;
5157;SDS011;2598;52.364;9.772;2023-12-14T09:20:59;5.80;;;2.90;;
5157;SDS011;2598;52.364;9.772;2023-12-14T09:23:25;6.40;;;3.07;;
5157;SDS011;2598;52.364;9.772;2023-12-14T09:25:51;5.73;;;2.70;;
5157;SDS011;2598;52.364;9.772;2023-12-14T09:28:17;6.27;;;3.50;;
5157;SDS011;2598;52.364;9.772;2023-12-14T09:30:43;5.37;;;2.60;;
5157;SDS011;2598;52.364;9.772;2023-12-14T09:33:09;5.73;;;2.93;;
5157;SDS011;2598;52.364;9.772;2023-12-14T09:35:35;5.60;;;2.67;;
5157;SDS011;2598;52.364;9.772;2023-12-14T09:38:02;6.03;;;2.97;;
5157;SDS011;2598;52.364;9.772;2023-12-14T09:40:28;12.03;;;2.77;;
5157;SDS011;2598;52.364;9.772;2023-12-14T09:42:54;5.50;;;2.60;;
5157;SDS011;2598;52.364;9.772;2023-12-14T09:45:22;5.93;;;2.90;;
5157;SDS011;2598;52.364;9.772;2023-12-14T09:47:49;5.13;;;2.50;;
5157;SDS011;2598;52.364;9.772;2023-12-14T09:50:15;6.43;;;2.97;;
5157;SDS011;2598;52.364;9.772;2023-12-14T09:52:41;6.93;;;2.13;;
5157;SDS011;2598;52.364;9.772;2023-12-14T09:55:12;4.47;;;2.07;;
5157;SDS011;2598;52.364;9.772;2023-12-14T09:57:39;5.57;;;2.70;;
5157;SDS011;2598;52.364;9.772;2023-12-14T10:00:05;7.07;;;2.97;;
5157;SDS011;2598;52.364;9.772;2023-12-14T10:02:34;8.30;;;2.70;;
5157;SDS011;2598;52.364;9.772;2023-12-14T10:05:00;6.27;;;2.67;;
5157;SDS011;2598;52.364;9.772;2023-12-14T10:07:26;5.47;;;2.67;;
5157;SDS011;2598;52.364;9.772;2023-12-14T10:09:52;6.13;;;2.30;;
5157;SDS011;2598;52.364;9.772;2023-12-14T10:12:20;6.10;;;2.90;;
5157;SDS011;2598;52.364;9.772;2023-12-14T10:14:48;5.63;;;2.60;;
5157;SDS011;2598;52.364;9.772;2023-12-14T10:17:25;6.07;;;3.10;;
5157;SDS011;2598;52.364;9.772;2023-12-14T10:19:57;4.43;;;2.33;;
5157;SDS011;2598;52.364;9.772;2023-12-14T10:22:25;8.90;;;2.73;;
5157;SDS011;2598;52.364;9.772;2023-12-14T10:24:51;5.27;;;2.50;;
5157;SDS011;2598;52.364;9.772;2023-12-14T10:27:17;4.80;;;2.30;;
5157;SDS011;2598;52.364;9.772;2023-12-14T10:29:43;7.20;;;3.10;;
5157;SDS011;2598;52.364;9.772;2023-12-14T10:32:11;5.27;;;2.40;;
5157;SDS011;2598;52.364;9.772;2023-12-14T10:34:37;4.90;;;2.40;;
5157;SDS011;2598;52.364;9.772;2023-12-14T10:37:06;5.70;;;2.60;;
5157;SDS011;2598;52.364;9.772;2023-12-14T10:39:33;5.57;;;2.67;;
5157;SDS011;2598;52.364;9.772;2023-12-14T10:42:01;6.63;;;2.80;;
5157;SDS011;2598;52.364;9.772;2023-12-14T10:44:28;6.13;;;2.23;;
5157;SDS011;2598;52.364;9.772;2023-12-14T10:46:55;4.60;;;2.33;;
5157;SDS011;2598;52.364;9.772;2023-12-14T10:49:26;5.20;;;2.60;;
5157;SDS011;2598;52.364;9.772;2023-12-14T10:51:56;6.93;;;2.90;;
5157;SDS011;2598;52.364;9.772;2023-12-14T10:54:23;5.87;;;3.07;;
5157;SDS011;2598;52.364;9.772;2023-12-14T10:56:49;6.90;;;2.60;;
5157;SDS011;2598;52.364;9.772;2023-12-14T10:59:15;7.70;;;3.40;;
5157;SDS011;2598;52.364;9.772;2023-12-14T11:01:42;6.43;;;2.50;;
5157;SDS011;2598;52.364;9.772;2023-12-14T11:04:08;5.70;;;2.40;;
5157;SDS011;2598;52.364;9.772;2023-12-14T11:06:38;5.70;;;2.50;;
5157;SDS011;2598;52.364;9.772;2023-12-14T11:09:06;5.43;;;2.43;;
5157;SDS011;2598;52.364;9.772;2023-12-14T11:11:42;5.90;;;2.53;;
5157;SDS011;2598;52.364;9.772;2023-12-14T11:14:11;7.90;;;3.00;;
5157;SDS011;2598;52.364;9.772;2023-12-14T11:16:39;8.23;;;3.10;;
5157;SDS011;2598;52.364;9.772;2023-12-14T11:24:31;6.63;;;2.73;;
5157;SDS011;2598;52.364;9.772;2023-12-14T11:26:57;6.30;;;3.13;;
5157;SDS011;2598;52.364;9.772;2023-12-14T11:29:24;7.30;;;2.97;;
5157;SDS011;2598;52.364;9.772;2023-12-14T11:31:51;6.90;;;2.83;;
5157;SDS011;2598;52.364;9.772;2023-12-14T11:34:17;5.40;;;2.60;;
5157;SDS011;2598;52.364;9.772;2023-12-14T11:36:43;6.50;;;3.50;;
5157;SDS011;2598;52.364;9.772;2023-12-14T11:39:10;8.07;;;3.80;;
5157;SDS011;2598;52.364;9.772;2023-12-14T11:41:36;7.77;;;3.93;;
5157;SDS011;2598;52.364;9.772;2023-12-14T11:44:05;4.90;;;2.77;;
5157;SDS011;2598;52.364;9.772;2023-12-14T11:46:32;5.73;;;3.30;;
5157;SDS011;2598;52.364;9.772;2023-12-14T11:48:58;9.07;;;4.17;;
5157;SDS011;2598;52.364;9.772;2023-12-14T11:51:28;9.40;;;3.53;;
5157;SDS011;2598;52.364;9.772;2023-12-14T11:53:56;7.53;;;3.60;;
5157;SDS011;2598;52.364;9.772;2023-12-14T11:56:23;8.33;;;3.87;;
5157;SDS011;2598;52.364;9.772;2023-12-14T11:58:50;8.07;;;3.80;;
5157;SDS011;2598;52.364;9.772;2023-12-14T12:01:17;7.30;;;3.73;;
5157;SDS011;2598;52.364;9.772;2023-12-14T12:03:44;6.30;;;3.97;;
5157;SDS011;2598;52.364;9.772;2023-12-14T12:06:22;9.00;;;5.50;;
5157;SDS011;2598;52.364;9.772;2023-12-14T12:08:48;7.23;;;4.03;;
5157;SDS011;2598;52.364;9.772;2023-12-14T12:11:18;6.77;;;3.47;;
5157;SDS011;2598;52.364;9.772;2023-12-14T12:13:44;9.87;;;4.27;;
5157;SDS011;2598;52.364;9.772;2023-12-14T12:16:10;7.00;;;3.90;;
5157;SDS011;2598;52.364;9.772;2023-12-14T12:18:36;6.63;;;3.13;;
5157;SDS011;2598;52.364;9.772;2023-12-14T12:21:02;8.40;;;4.33;;
5157;SDS011;2598;52.364;9.772;2023-12-14T12:23:31;11.73;;;3.43;;
5157;SDS011;2598;52.364;9.772;2023-12-14T12:25:57;7.27;;;3.80;;
5157;SDS011;2598;52.364;9.772;2023-12-14T12:28:23;6.00;;;3.27;;
5157;SDS011;2598;52.364;9.772;2023-12-14T12:30:49;5.40;;;2.90;;
5157;SDS011;2598;52.364;9.772;2023-12-14T12:33:15;10.40;;;3.93;;
5157;SDS011;2598;52.364;9.772;2023-12-14T12:35:41;8.60;;;4.40;;
5157;SDS011;2598;52.364;9.772;2023-12-14T12:38:07;9.07;;;3.57;;
5157;SDS011;2598;52.364;9.772;2023-12-14T12:40:33;10.03;;;3.67;;
5157;SDS011;2598;52.364;9.772;2023-12-14T12:42:59;6.90;;;3.07;;
5157;SDS011;2598;52.364;9.772;2023-12-14T12:45:25;7.13;;;3.67;;
5157;SDS011;2598;52.364;9.772;2023-12-14T12:47:52;9.83;;;3.40;;
5157;SDS011;2598;52.364;9.772;2023-12-14T12:50:19;6.77;;;3.30;;
5157;SDS011;2598;52.364;9.772;2023-12-14T12:52:45;7.90;;;4.17;;
5157;SDS011;2598;52.364;9.772;2023-12-14T12:55:13;7.50;;;3.67;;
5157;SDS011;2598;52.364;9.772;2023-12-14T12:57:40;6.57;;;3.13;;
5157;SDS011;2598;52.364;9.772;2023-12-14T13:00:09;10.37;;;4.20;;
5157;SDS011;2598;52.364;9.772;2023-12-14T13:02:39;6.73;;;4.13;;
5157;SDS011;2598;52.364;9.772;2023-12-14T13:05:06;7.57;;;4.00;;
5157;SDS011;2598;52.364;9.772;2023-12-14T13:07:32;11.00;;;4.27;;
5157;SDS011;2598;52.364;9.772;2023-12-14T13:09:58;7.73;;;3.90;;
5157;SDS011;2598;52.364;9.772;2023-12-14T13:12:24;8.87;;;4.20;;
5157;SDS011;2598;52.364;9.772;2023-12-14T13:14:51;8.87;;;4.20;;
5157;SDS011;2598;52.364;9.772;2023-12-14T13:17:17;9.20;;;3.80;;
5157;SDS011;2598;52.364;9.772;2023-12-14T13:19:43;11.00;;;4.20;;
5157;SDS011;2598;52.364;9.772;2023-12-14T13:22:10;9.30;;;3.63;;
5157;SDS011;2598;52.364;9.772;2023-12-14T13:24:36;12.53;;;4.53;;
5157;SDS011;2598;52.364;9.772;2023-12-14T13:27:02;8.27;;;4.53;;
5157;SDS011;2598;52.364;9.772;2023-12-14T13:29:28;7.30;;;3.80;;
5157;SDS011;2598;52.364;9.772;2023-12-14T13:31:56;7.87;;;3.90;;
5157;SDS011;2598;52.364;9.772;2023-12-14T13:34:22;8.23;;;4.30;;
5157;SDS011;2598;52.364;9.772;2023-12-14T13:36:48;7.30;;;4.10;;
5157;SDS011;2598;52.364;9.772;2023-12-14T13:39:14;9.37;;;3.93;;
5157;SDS011;2598;52.364;9.772;2023-12-14T13:41:40;13.40;;;4.70;;
5157;SDS011;2598;52.364;9.772;2023-12-14T13:44:06;10.73;;;4.97;;
5157;SDS011;2598;52.364;9.772;2023-12-14T13:46:32;9.43;;;4.80;;
5157;SDS011;2598;52.364;9.772;2023-12-14T13:48:58;10.47;;;5.40;;
5157;SDS011;2598;52.364;9.772;2023-12-14T13:51:25;10.83;;;4.20;;
5157;SDS011;2598;52.364;9.772;2023-12-14T13:53:51;10.37;;;5.10;;
5157;SDS011;2598;52.364;9.772;2023-12-14T13:56:17;10.67;;;4.77;;
5157;SDS011;2598;52.364;9.772;2023-12-14T13:58:43;11.10;;;3.93;;
5157;SDS011;2598;52.364;9.772;2023-12-14T14:01:09;9.20;;;4.30;;
5157;SDS011;2598;52.364;9.772;2023-12-14T14:03:35;9.10;;;4.53;;
5157;SDS011;2598;52.364;9.772;2023-12-14T14:06:05;11.13;;;4.70;;
5157;SDS011;2598;52.364;9.772;2023-12-14T14:08:31;9.33;;;4.73;;
5157;SDS011;2598;52.364;9.772;2023-12-14T14:10:58;9.50;;;4.50;;
5157;SDS011;2598;52.364;9.772;2023-12-14T14:13:24;11.47;;;4.13;;
5157;SDS011;2598;52.364;9.772;2023-12-14T14:15:50;9.37;;;4.90;;
5157;SDS011;2598;52.364;9.772;2023-12-14T14:18:16;11.37;;;4.53;;
5157;SDS011;2598;52.364;9.772;2023-12-14T14:20:42;13.03;;;4.87;;
5157;SDS011;2598;52.364;9.772;2023-12-14T14:23:08;8.97;;;4.10;;
5157;SDS011;2598;52.364;9.772;2023-12-14T14:25:34;9.30;;;4.80;;
5157;SDS011;2598;52.364;9.772;2023-12-14T14:28:00;12.57;;;4.00;;
5157;SDS011;2598;52.364;9.772;2023-12-14T14:30:26;8.20;;;4.50;;
5157;SDS011;2598;52.364;9.772;2023-12-14T14:32:52;8.70;;;5.00;;
5157;SDS011;2598;52.364;9.772;2023-12-14T14:35:18;12.13;;;4.63;;
5157;SDS011;2598;52.364;9.772;2023-12-14T14:37:44;10.10;;;4.20;;
5157;SDS011;2598;52.364;9.772;2023-12-14T14:40:13;8.97;;;4.93;;
5157;SDS011;2598;52.364;9.772;2023-12-14T14:42:40;7.80;;;4.53;;
5157;SDS011;2598;52.364;9.772;2023-12-14T14:45:09;10.17;;;4.57;;
5157;SDS011;2598;52.364;9.772;2023-12-14T14:47:35;11.53;;;4.97;;
5157;SDS011;2598;52.364;9.772;2023-12-14T14:50:01;14.63;;;5.13;;
5157;SDS011;2598;52.364;9.772;2023-12-14T14:52:31;9.03;;;4.93;;
5157;SDS011;2598;52.364;9.772;2023-12-14T14:54:57;13.80;;;5.97;;
5157;SDS011;2598;52.364;9.772;2023-12-14T14:57:24;8.33;;;4.70;;
5157;SDS011;2598;52.364;9.772;2023-12-14T14:59:50;9.30;;;4.57;;
5157;SDS011;2598;52.364;9.772;2023-12-14T15:02:16;12.30;;;5.97;;
5157;SDS011;2598;52.364;9.772;2023-12-14T15:04:42;9.60;;;5.37;;
5157;SDS011;2598;52.364;9.772;2023-12-14T15:07:08;13.20;;;6.00;;
5157;SDS011;2598;52.364;9.772;2023-12-14T15:09:34;12.17;;;5.90;;
5157;SDS011;2598;52.364;9.772;2023-12-14T15:12:00;14.93;;;5.40;;
5157;SDS011;2598;52.364;9.772;2023-12-14T15:14:26;10.70;;;5.00;;
5157;SDS011;2598;52.364;9.772;2023-12-14T15:16:52;10.07;;;5.30;;